Aviation Digital Data Service (ADDS)

Output produced by METARs form (1110 UTC 13 December 2017)
found at http://www.aviationweather.gov/adds/metars/
 
SMJP 131100Z 16001KT 6000 FEW008 SCT035 24/24 Q1013 NOSIG
TAF SMJP 131000Z 1312/1412 08008KT 9999 BKN015 TX30/1317Z TN23/1410Z 
     TEMPO 1313/1322 4000 SHRA FEW015CB BKN020 
     PROB30 
     TEMPO 1317/1320 VRB12G22KT 3000 TSRA 
     BECMG 1401/1403 06005KT FEW010 SCT025 
     TEMPO 1409/1411 2000 BR SCT003